Main page
METAR-TAF:

METAR-TAF

Airports :

Rarotonga, Cook Islands

Rarotonga International Airport

latitude: 21-12S, longitude: 159-49W, elevation: 7 m

Current weather observation

The report was made 1 hour and 9 minutes ago, at 01:00 UTC
Wind 10 kt from the South/Southwest
Temperature 25°C
Humidity 54%
Pressure 1014 hPa
Visibility 10 km or more
Few clouds at a height of 2300 ft

METAR: NCRG 230100Z 21010KT 9999 FEW023 25/15 Q1014

Time: 16:09 (02:09 UTC)

Forecast

The report was made 2 hours and 47 minutes ago, at 23:22 UTC
Forecast valid from 23 at 00 UTC to 23 at 24 UTC
Wind 7 kt from the Southwest
Visibility 10 km or more
Scattered clouds at a height of 2000 ft
From 23 at 0600 UTC
Wind 7 kt from the South/Southeast
Visibility 10 km or more
Few clouds at a height of 2000 ft
Scattered clouds at a height of 10000 ft

TAF: NCRG 222322Z 2300/2324 22007KT 9999 SCT020 FM230600 16007KT 9999 FEW020 SCT100

Weather observations and forecasts of more than 4000 airports (METAR and TAF reports).

The available stations are represented by yellow and red dots on the map.

Hover mouse over dot to see the name of the station.

Then click to see weather observations and forecasts.

To change the map : click on the green buttons with a black cross to zoom in, on the green button with a dash to zoom out, or on the green arrows for adjacent maps.


METAR-TAF: